Latest Coastal Weather Observations for Cairns

IDQ60701

Issued at 1:42 pm EST Saturday 1 August 2015 (issued every 10 minutes, with the page automatically refreshed every 10 minutes)

About coastal observations | Map of coastal stations | Coastal observations for QLD | Marine services | Other Formats
Station Details ID: 031011 Name: CAIRNS AERO Lat: -16.87 Lon: 145.75 Height: 2.22 m
Data from the previous 72 hours. | See also: Recent months at Cairns
Date/Time
EST
Temp

°C
Wind Pressure Rain
since 9am
mm
Weather Cloud Vis
km
Sea
Height
m
Swell
Dir
 
Speed
knots
Gust
knots
hPa Trend Height
m
Period
s
Dir
01/01:30pm 26.0 SE 16 19 1017.5 - 0.2 - Mostly clear 10 - - - -
01/01:00pm 26.1 SE 17 21 1017.8 - 0.2 - Mostly clear 10 - - - -
01/12:30pm 26.4 SE 18 23 1018.4 - 0.2 - Mostly clear 10 - - - -
01/12:00pm 25.4 SE 19 24 1019.0 - 0.2 - Partly cloudy 10 - - - -
01/11:30am 25.2 SE 20 27 1019.3 - 0.2 - Mostly clear 10 - - - -
01/11:00am 25.3 SE 17 22 1019.5 - 0.0 - Mostly clear 10 - - - -
01/10:30am 24.5 SE 19 23 1020.1 - 0.0 - Mostly clear 10 - - - -
01/10:00am 24.6 SE 16 20 1020.3 - 0.0 - Mostly clear 10 - - - -
01/09:30am 23.7 SSE 10 13 1020.3 - 0.0 - Mostly clear 10 - - - -
01/09:00am 22.3 S 11 15 1020.1 F 5.4 Fine Mostly clear 30 - - - -
01/08:30am 22.1 SSE 13 17 1020.0 - 5.4 - Mostly clear 10 - - - -
01/08:00am 21.1 SSE 10 15 1019.6 - 5.4 - Mostly clear 10 - - - -
01/07:30am 20.7 SSE 9 13 1019.4 - 5.4 - Mostly clear 10 - - - -
01/07:00am 19.9 S 9 14 1019.1 - 5.4 - Mostly clear 10 - - - -
01/06:30am 20.1 SSE 9 13 1019.0 - 5.4 - Mostly clear 10 - - - -
01/06:00am 19.9 SSE 8 10 1018.6 - 5.4 - Partly cloudy 10 - - - -
01/05:30am 19.6 SE 9 13 1018.4 - 5.4 - Mostly clear 10 - - - -
01/05:00am 19.9 SSE 7 10 1018.2 - 5.4 - Mostly clear 10 - - - -
01/04:30am 20.4 SSE 10 14 1017.8 - 5.2 Showers Mostly clear 10 - - - -
01/04:00am 20.0 SSE 10 14 1017.8 - 5.0 Showers Mostly clear 10 - - - -
01/03:30am 19.6 SSE 9 13 1018.0 - 5.0 Showers Mostly clear 10 - - - -
01/03:20am 19.4 SE 9 15 1018.0 - 5.0 Showers Partly cloudy 10 - - - -
01/03:11am 19.4 SE 8 12 1018.2 - 4.0 Showers Mostly clear 6 - - - -
01/03:00am 19.5 SE 8 12 1018.0 - 3.6 - Cloudy 8 - - - -
01/02:30am 19.6 SE 7 9 1018.2 - 3.2 Showers Mostly clear 8 - - - -
01/02:00am 19.4 SSE 7 10 1018.4 - 2.6 Showers Mostly clear 8 - - - -
01/01:30am 19.7 SSE 7 10 1018.8 - 1.0 Showers Mostly clear 8 - - - -
01/01:00am 20.2 SSE 9 14 1019.0 - 0.4 Showers Mostly clear 8 - - - -
01/12:30am 20.5 SSE 12 16 1018.7 - 0.2 - Mostly clear 10 - - - -
01/12:00am 20.5 SSE 12 17 1018.7 - 0.2 - Cloudy 10 - - - -
 
Date/Time
EST
Temp

°C
Wind Pressure Rain
since 9am
mm
Weather Cloud Vis
km
Sea
Height
m
Swell
Dir
 
Speed
knots
Gust
knots
hPa Trend Height
m
Period
s
Dir
31/11:30pm 20.3 SSE 12 18 1019.0 - 0.2 Showers Mostly clear 10 - - - -
31/11:00pm 20.7 S 12 18 1018.8 - 0.2 - Mostly clear 10 - - - -
31/10:30pm 20.2 S 11 16 1019.0 - 0.2 - Mostly clear 10 - - - -
31/10:00pm 20.7 S 10 17 1019.1 - 0.2 - Mostly clear 10 - - - -
31/09:30pm 20.8 SSE 9 15 1018.9 - 0.2 - Mostly clear 10 - - - -
31/09:00pm 20.8 SSE 7 13 1018.9 - 0.2 - Cloudy 10 - - - -
31/08:30pm 20.6 SSE 7 10 1018.8 - 0.2 - Mostly clear 10 - - - -
31/08:00pm 20.5 SE 14 20 1018.9 - 0.2 Showers Mostly clear 10 - - - -
31/07:30pm 21.2 SSE 9 13 1018.3 - 0.2 - Mostly clear 10 - - - -
31/07:00pm 20.9 SSE 10 14 1017.9 - 0.2 - Mostly clear 10 - - - -
31/06:30pm 21.7 SE 16 19 1017.7 - 0.2 - Mostly clear 10 - - - -
31/06:00pm 21.9 SE 17 21 1017.2 - 0.2 - Partly cloudy 10 - - - -
31/05:30pm 22.6 SE 17 21 1017.0 - 0.2 - Mostly clear 10 - - - -
31/05:00pm 23.0 SE 18 22 1016.8 - 0.2 - Mostly clear 10 - - - -
31/04:30pm 23.7 SE 20 27 1016.7 - 0.2 - Mostly clear 10 - - - -
31/04:00pm 24.4 ESE 18 25 1016.7 - 0.2 - Mostly clear 10 - - - -
31/03:30pm 24.7 ESE 18 22 1016.5 - 0.2 - Mostly clear 10 - - - -
31/03:00pm 25.4 SE 20 26 1016.7 F 0.2 Fine Mostly clear 30 - - - -
31/02:30pm 24.9 ESE 20 26 1017.1 - 0.2 - Mostly clear 10 - - - -
31/02:00pm 25.4 SE 20 25 1017.4 - 0.2 - Mostly clear 10 - - - -
31/01:30pm 25.5 SE 19 26 1017.6 - 0.2 - Mostly clear 10 - - - -
31/01:00pm 25.2 SE 20 25 1017.9 - 0.2 - Mostly clear 10 - - - -
31/12:30pm 24.9 SE 20 24 1018.5 - 0.2 - Mostly clear 10 - - - -
31/12:00pm 24.7 SE 19 23 1018.9 - 0.0 - Cloudy 10 - - - -
31/11:30am 24.2 SE 20 27 1019.6 - 0.0 - Partly cloudy 10 - - - -
31/11:00am 23.4 SE 19 24 1019.8 - 0.0 - Partly cloudy 10 - - - -
31/10:56am 23.3 SE 20 22 1020.0 - 0.0 - Partly cloudy 10 - - - -
31/10:30am 22.7 S 11 16 1020.4 - 0.0 - Partly cloudy 10 - - - -
31/10:00am 21.8 S 11 16 1020.6 - 0.0 - Partly cloudy 10 - - - -
31/09:30am 21.1 SSE 13 19 1020.7 - 0.0 - Mostly clear 10 - - - -
31/09:00am 20.9 SSE 9 15 1020.6 R 3.4 Distant precip. Partly cloudy 15 - - - -
31/08:30am 20.0 S 14 19 1020.4 - 3.4 - Mostly clear 10 - - - -
31/08:18am 20.1 S 11 16 1020.3 - 3.4 - Mostly clear 10 - - - -
31/07:59am 19.3 SSE 10 14 1020.3 - 3.0 Showers Mostly clear 6 - - - -
31/07:51am 19.6 S 10 14 1020.0 - 2.8 Showers Mostly clear 5 - - - -
31/07:30am 19.3 S 11 17 1019.9 - 2.8 - Mostly clear 10 - - - -
31/07:00am 19.1 S 13 18 1019.6 - 2.8 - Mostly clear 10 - - - -
31/06:30am 18.9 SSE 8 11 1019.3 - 2.8 Showers Mostly clear 10 - - - -
31/06:00am 18.6 S 10 18 1019.0 - 2.6 - Cloudy 8 - - - -
31/05:57am 18.5 S 10 15 1019.1 - 2.6 Showers Mostly clear 8 - - - -
31/05:45am 18.7 S 10 16 1019.1 - 2.0 Showers Mostly clear 6 - - - -
31/05:30am 18.9 SSE 9 15 1019.2 - 1.4 Showers Mostly clear 8 - - - -
31/05:00am 19.4 S 10 14 1018.8 - 0.8 Showers Mostly clear 10 - - - -
31/04:30am 19.0 S 11 16 1018.9 - 0.8 - Mostly clear 10 - - - -
31/04:00am 19.1 S 10 18 1019.1 - 0.6 - Mostly clear 10 - - - -
31/03:30am 18.5 SSE 10 15 1019.3 - 0.6 Showers Mostly clear 10 - - - -
31/03:00am 19.0 SSE 10 15 1019.2 - 0.2 - Cloudy 10 - - - -
31/02:30am 19.9 S 9 15 1019.4 - 0.2 Showers Mostly clear 10 - - - -
31/02:00am 19.8 S 8 13 1019.5 - 0.2 - Mostly clear 10 - - - -
31/01:30am 19.5 S 8 11 1020.0 - 0.2 - Mostly clear 10 - - - -
31/01:00am 19.4 S 10 17 1020.4 - 0.2 - Mostly clear 10 - - - -
31/12:30am 19.8 S 13 18 1020.5 - 0.2 - Mostly clear 10 - - - -
31/12:00am 19.7 S 9 17 1020.9 - 0.2 - Mostly cloudy 10 - - - -
 
Date/Time
EST
Temp

°C
Wind Pressure Rain
since 9am
mm
Weather Cloud Vis
km
Sea
Height
m
Swell
Dir
 
Speed
knots
Gust
knots
hPa Trend Height
m
Period
s
Dir
30/11:30pm 19.6 S 9 17 1020.8 - 0.2 - Mostly clear 10 - - - -
30/11:00pm 19.7 SSE 11 15 1020.9 - 0.2 - Mostly clear 10 - - - -
30/10:30pm 19.5 S 8 13 1020.9 - 0.2 - Mostly clear 10 - - - -
30/10:00pm 19.9 S 11 17 1021.0 - 0.2 - Mostly clear 10 - - - -
30/09:30pm 20.0 S 10 15 1020.9 - 0.2 - Mostly clear 10 - - - -
30/09:00pm 20.2 S 8 13 1020.7 - 0.2 - Mostly clear 10 - - - -
30/08:30pm 19.9 S 9 14 1020.9 - 0.2 - Mostly clear 10 - - - -
30/08:00pm 20.3 S 8 13 1020.7 - 0.2 - Mostly clear 10 - - - -
30/07:30pm 20.4 SSE 10 17 1020.3 - 0.2 - Mostly clear 10 - - - -
30/07:00pm 20.4 S 7 13 1020.0 - 0.2 - Mostly clear 10 - - - -
30/06:30pm 20.6 S 6 10 1019.6 - 0.2 - Mostly clear 10 - - - -
30/06:00pm 21.1 SSE 6 8 1019.3 - 0.2 - Mostly clear 10 - - - -
30/05:30pm 22.6 SE 14 17 1019.1 - 0.2 - Mostly clear 10 - - - -
30/05:00pm 23.2 SE 15 20 1018.9 - 0.2 - Mostly clear 10 - - - -
30/04:30pm 24.0 SE 18 22 1018.5 - 0.2 - Mostly clear 10 - - - -
30/04:00pm 24.4 SE 18 22 1018.4 - 0.2 - Mostly clear 10 - - - -
30/03:30pm 23.9 SE 18 22 1018.5 - 0.2 - Mostly clear 10 - - - -
30/03:00pm 25.4 SE 16 22 1018.4 R 0.2 Fine Mostly clear 30 - - - -
30/02:30pm 25.0 SE 18 22 1018.7 - 0.2 - Mostly clear 10 - - - -
30/02:00pm 25.3 SE 19 26 1019.1 - 0.2 - Mostly clear 10 - - - -
30/01:30pm 25.5 SE 19 25 1019.4 - 0.2 - Mostly clear 10 - - - -
30/01:00pm 25.7 SE 19 25 1019.7 - 0.2 - Mostly clear 10 - - - -
30/12:30pm 25.6 SE 19 25 1020.1 - 0.2 - Mostly clear 10 - - - -
30/12:00pm 24.9 SE 21 27 1020.4 - 0.2 - Mostly clear 10 - - - -
30/11:30am 25.0 SE 22 27 1020.8 - 0.0 - Mostly clear 10 - - - -
30/11:00am 25.1 SE 19 25 1021.0 - 0.0 - Mostly clear 10 - - - -
30/10:30am 24.5 SE 20 27 1021.3 - 0.0 - Mostly clear 10 - - - -
30/10:00am 23.9 SE 21 29 1021.6 - 0.0 - Mostly clear 10 - - - -
30/09:27am 23.8 SE 20 28 1021.6 - 0.0 - Mostly clear 10 - - - -
30/09:00am 22.6 SSE 16 21 1021.2 F 3.6 Fine Mostly clear 20 - - - -
30/08:30am 22.1 SSE 15 19 1021.2 - 3.6 - Mostly clear 10 - - - -
30/08:00am 20.7 SSE 13 18 1021.0 - 3.6 - Mostly clear 10 - - - -
30/07:30am 20.5 S 9 15 1020.9 - 3.6 - Mostly clear 10 - - - -
30/07:00am 20.2 SSE 12 18 1020.6 - 3.6 - Mostly clear 10 - - - -
30/06:30am 20.3 SSE 9 14 1020.2 - 3.6 - Mostly clear 5 - - - -
30/06:00am 20.4 SSE 11 18 1019.9 - 3.6 - Cloudy 10 - - - -
30/05:30am 20.5 SSE 12 18 1019.8 - 3.6 - Mostly clear 10 - - - -
30/05:00am 20.6 SSE 13 18 1019.6 - 3.6 - Mostly clear 10 - - - -
30/04:30am 20.6 SSE 13 20 1019.5 - 3.6 - Mostly clear 10 - - - -
30/04:00am 20.6 SSE 12 19 1019.4 - 3.6 - Mostly clear 10 - - - -
30/03:30am 20.6 SSE 11 17 1019.5 - 3.6 - Mostly clear 10 - - - -
30/03:00am 20.5 S 11 16 1019.5 - 3.6 - Cloudy 10 - - - -
30/02:30am 20.6 SSE 12 17 1019.9 - 3.6 - Mostly clear 10 - - - -
30/02:00am 20.3 SSE 13 18 1020.2 - 3.6 - Mostly clear 10 - - - -
30/01:30am 20.5 SSE 11 15 1020.5 - 3.6 - Mostly clear 10 - - - -
30/01:00am 20.4 SSE 13 19 1020.7 - 3.6 - Mostly clear 10 - - - -
30/12:30am 20.0 SSE 12 17 1021.2 - 3.0 Showers Mostly clear 8 - - - -
30/12:00am 20.8 SSE 13 18 1021.2 - 1.0 - Cloudy 10 - - - -
 
Date/Time
EST
Temp

°C
Wind Pressure Rain
since 9am
mm
Weather Cloud Vis
km
Sea
Height
m
Swell
Dir
 
Speed
knots
Gust
knots
hPa Trend Height
m
Period
s
Dir
29/11:30pm 21.1 SSE 14 19 1021.6 - 1.0 - Mostly clear 10 - - - -
29/11:00pm 20.8 SSE 13 19 1021.9 - 1.0 - Partly cloudy 10 - - - -
29/10:30pm 20.9 SSE 13 18 1022.1 - 1.0 - Mostly clear 10 - - - -
29/10:00pm 20.8 SSE 12 17 1021.9 - 0.8 Showers Mostly clear 8 - - - -
29/09:30pm 20.7 SSE 11 16 1022.0 - 0.8 - Mostly clear 10 - - - -
29/09:00pm 20.7 S 10 18 1021.9 - 0.6 - Cloudy 10 - - - -
29/08:30pm 20.3 SSE 14 20 1021.8 - 0.6 - Mostly clear 10 - - - -
29/08:24pm 20.2 SSE 17 21 1021.7 - 0.6 - Mostly clear 7 - - - -
29/08:08pm 20.4 SSE 14 18 1021.7 - 0.2 Showers Mostly clear 5 - - - -
29/08:00pm 20.7 SSE 12 18 1021.5 - 0.0 - Mostly clear 5 - - - -
29/07:30pm 20.5 SSE 13 19 1021.2 - 0.0 Showers Mostly clear 8 - - - -
29/07:00pm 21.4 SSE 13 18 1020.6 - 0.0 - Mostly clear 10 - - - -
29/06:30pm 21.4 SSE 13 17 1020.4 - 0.0 - Mostly clear 10 - - - -
29/06:00pm 21.4 SSE 15 20 1020.0 - 0.0 - Cloudy 8 - - - -
29/05:41pm 21.5 SSE 16 26 1019.9 - 0.0 Showers Mostly clear 7 - - - -
29/05:30pm 21.6 S 16 24 1019.8 - 0.0 - Partly cloudy 10 - - - -
29/05:00pm 21.7 SSE 17 24 1019.7 - 0.0 - Partly cloudy 10 - - - -
29/04:30pm 21.7 SSE 17 22 1019.5 - 0.0 - Partly cloudy 10 - - - -
29/04:00pm 22.1 SSE 19 26 1019.3 - 0.0 Showers Partly cloudy 10 - - - -
29/03:30pm 22.6 SSE 18 26 1019.2 - 0.0 - Partly cloudy 10 - - - -
29/03:00pm 22.9 SSE 20 28 1019.3 R 0.0 Distant precip. Cloudy 20 - - - -
29/02:35pm 25.0 SSE 18 28 1019.4 - 0.0 - Mostly clear 10 - - - -
29/02:30pm 25.3 SSE 20 28 1019.3 - 0.0 - Mostly clear 10 - - - -
29/02:00pm 24.8 SSE 17 25 1019.5 - 0.0 - Mostly clear 10 - - - -

Other Formats:

Comma delimited format used in spreadsheet applications
http://www.bom.gov.au/fwo/IDQ60701/IDQ60701.94287.axf

JavaScript Object Notation format (JSON) in row-major order
http://www.bom.gov.au/fwo/IDQ60701/IDQ60701.94287.json